createdAt,value
2019-01-31T00:01:19.664Z,21.03
2019-01-31T00:04:10.382Z,21.47
2019-01-31T00:06:56.733Z,20.33
2019-01-31T00:09:30.775Z,20.37
2019-01-31T00:12:10.905Z,21.80
2019-01-31T00:14:42.893Z,21.73
2019-01-31T00:17:25.745Z,21.93
2019-01-31T00:20:13.885Z,21.53
2019-01-31T00:22:54.041Z,20.67
2019-01-31T00:25:42.146Z,21.53
2019-01-31T00:28:25.445Z,21.20
2019-01-31T00:31:29.820Z,21.30
2019-01-31T00:34:16.447Z,20.97
2019-01-31T00:37:02.885Z,21.00
2019-01-31T00:39:36.953Z,22.33
2019-01-31T00:42:16.976Z,20.97
2019-01-31T00:45:03.417Z,20.37
2019-01-31T00:48:00.130Z,22.27
2019-01-31T00:50:37.104Z,21.83
2019-01-31T00:53:11.198Z,21.53
2019-01-31T00:55:51.479Z,22.47
2019-01-31T00:58:25.926Z,21.60
2019-01-31T01:00:57.518Z,20.77
2019-01-31T01:03:43.999Z,20.93
2019-01-31T01:06:36.209Z,21.23
2019-01-31T01:09:19.576Z,21.23
2019-01-31T01:11:53.562Z,20.53
2019-01-31T01:14:50.277Z,21.03
2019-01-31T01:17:21.794Z,21.27
2019-01-31T01:20:11.030Z,19.70
2019-01-31T01:22:42.558Z,21.10
2019-01-31T01:25:22.142Z,20.07
2019-01-31T01:28:02.694Z,20.30
2019-01-31T01:30:40.182Z,20.60
2019-01-31T01:33:23.427Z,21.47
2019-01-31T01:36:06.724Z,20.13
2019-01-31T01:39:00.427Z,21.30
2019-01-31T01:41:37.476Z,21.50
2019-01-31T01:44:31.383Z,20.47
2019-01-31T01:47:08.504Z,20.37
2019-01-31T01:49:57.487Z,19.93
2019-01-31T01:52:29.000Z,20.70
2019-01-31T01:55:03.505Z,19.73
2019-01-31T01:57:37.618Z,19.73
2019-01-31T02:00:30.143Z,20.10
2019-01-31T02:03:04.545Z,19.53
2019-01-31T02:05:38.713Z,20.87
2019-01-31T02:08:21.894Z,20.63
2019-01-31T02:11:02.349Z,20.13
2019-01-31T02:13:33.875Z,19.57
2019-01-31T02:16:35.197Z,19.77
2019-01-31T02:19:12.368Z,20.23
2019-01-31T02:21:52.533Z,20.00
2019-01-31T02:24:24.048Z,21.00
2019-01-31T02:27:01.276Z,20.97
2019-01-31T02:29:35.416Z,21.23
2019-01-31T02:32:18.053Z,21.67
2019-01-31T02:34:49.570Z,20.57
2019-01-31T02:37:32.294Z,20.90
2019-01-31T02:40:03.822Z,20.50
2019-01-31T02:42:46.485Z,20.23
2019-01-31T02:45:35.194Z,20.70
2019-01-31T02:48:38.034Z,19.83
2019-01-31T02:51:30.389Z,20.30
2019-01-31T02:54:10.535Z,19.30
2019-01-31T02:56:53.702Z,20.60
2019-01-31T02:59:30.898Z,19.50
2019-01-31T03:02:14.325Z,19.83
2019-01-31T03:05:00.427Z,19.63
2019-01-31T03:07:32.019Z,19.40
2019-01-31T03:10:19.692Z,18.40
2019-01-31T03:12:56.880Z,19.43
2019-01-31T03:15:40.220Z,19.23
2019-01-31T03:18:28.944Z,20.37
2019-01-31T03:21:08.934Z,19.47
2019-01-31T03:23:52.296Z,19.20
2019-01-31T03:26:46.392Z,19.33
2019-01-31T03:29:17.922Z,19.10
2019-01-31T03:31:52.209Z,18.60
2019-01-31T03:34:50.829Z,19.10
2019-01-31T03:37:31.257Z,18.53
2019-01-31T03:40:08.570Z,17.67
2019-01-31T03:42:57.750Z,18.37
2019-01-31T03:45:34.930Z,18.40
2019-01-31T03:48:12.430Z,18.90
2019-01-31T03:50:52.417Z,18.23
2019-01-31T03:53:41.869Z,17.83
2019-01-31T03:56:32.548Z,18.40
2019-01-31T03:59:04.081Z,18.17
2019-01-31T04:01:46.752Z,18.90
2019-01-31T04:04:20.680Z,17.90
2019-01-31T04:06:49.118Z,18.10
2019-01-31T04:09:17.570Z,18.17
2019-01-31T04:11:46.004Z,18.57
2019-01-31T04:14:14.474Z,18.00
2019-01-31T04:16:42.919Z,17.50
2019-01-31T04:19:11.373Z,17.40
2019-01-31T04:21:39.811Z,18.23
2019-01-31T04:24:08.265Z,17.63
2019-01-31T04:26:36.702Z,18.23
2019-01-31T04:29:05.220Z,17.67
2019-01-31T04:31:33.649Z,18.17
2019-01-31T04:34:02.105Z,18.13
2019-01-31T04:36:30.542Z,18.00
2019-01-31T04:38:59.000Z,18.70
2019-01-31T04:41:27.431Z,20.17
2019-01-31T04:43:55.881Z,26.90
2019-01-31T04:46:24.322Z,18.77
2019-01-31T04:48:52.777Z,17.83
2019-01-31T04:51:21.231Z,17.23
2019-01-31T04:53:49.675Z,17.33
2019-01-31T04:56:18.110Z,18.23
2019-01-31T04:58:46.553Z,17.60
2019-01-31T05:01:14.988Z,17.37
2019-01-31T05:03:43.447Z,17.13
2019-01-31T05:06:11.886Z,16.30
2019-01-31T05:08:40.331Z,17.00
2019-01-31T05:11:08.779Z,17.27
2019-01-31T05:13:37.220Z,15.97
2019-01-31T05:16:05.664Z,16.03
2019-01-31T05:18:34.142Z,17.23
2019-01-31T05:21:02.628Z,17.17
2019-01-31T05:23:31.067Z,16.50
2019-01-31T05:25:59.512Z,16.50
2019-01-31T05:28:27.949Z,17.37
2019-01-31T05:30:56.425Z,16.33
2019-01-31T05:33:24.861Z,16.80
2019-01-31T05:35:53.316Z,15.87
2019-01-31T05:38:21.741Z,15.47
2019-01-31T05:40:55.809Z,16.50
2019-01-31T05:43:20.362Z,15.77
2019-01-31T05:45:48.815Z,15.53
2019-01-31T05:48:17.245Z,16.20
2019-01-31T05:50:45.709Z,16.17
2019-01-31T05:53:14.145Z,15.80
2019-01-31T05:55:42.595Z,16.23
2019-01-31T05:58:11.113Z,15.30
2019-01-31T06:00:39.637Z,15.17
2019-01-31T06:03:08.326Z,16.17
2019-01-31T06:05:36.874Z,14.87
2019-01-31T06:08:05.315Z,15.43
2019-01-31T06:10:33.844Z,14.87
2019-01-31T06:13:02.270Z,14.27
2019-01-31T06:15:30.793Z,15.83
2019-01-31T06:17:59.234Z,16.00
2019-01-31T06:20:27.708Z,15.30
2019-01-31T06:22:56.141Z,15.70
2019-01-31T06:25:24.601Z,15.07
2019-01-31T06:27:53.121Z,15.23
2019-01-31T06:30:21.564Z,15.10
2019-01-31T06:32:50.003Z,14.83
2019-01-31T06:35:18.590Z,15.83
2019-01-31T06:37:47.040Z,15.03
2019-01-31T06:40:20.231Z,14.33
2019-01-31T06:42:48.829Z,15.20
2019-01-31T06:45:19.029Z,14.60
2019-01-31T06:47:47.584Z,14.23
2019-01-31T06:50:16.129Z,16.00
2019-01-31T06:52:44.567Z,15.03
2019-01-31T06:55:13.257Z,14.63
2019-01-31T06:57:41.703Z,15.70
2019-01-31T07:00:18.565Z,14.50
2019-01-31T07:02:46.996Z,16.17
2019-01-31T07:05:15.472Z,17.80
2019-01-31T07:07:43.898Z,15.07
2019-01-31T07:10:18.075Z,15.23
2019-01-31T07:12:46.516Z,15.30
2019-01-31T07:15:15.046Z,15.00
2019-01-31T07:17:43.479Z,15.10
2019-01-31T07:20:16.656Z,14.53
2019-01-31T07:22:45.153Z,15.73
2019-01-31T07:25:16.418Z,16.37
2019-01-31T07:27:44.871Z,15.57
2019-01-31T07:30:15.672Z,14.80
2019-01-31T07:32:44.173Z,14.27
2019-01-31T07:35:13.966Z,15.47
2019-01-31T07:37:42.400Z,15.97
2019-01-31T07:40:13.797Z,16.50
2019-01-31T07:42:42.236Z,16.47
2019-01-31T07:45:13.781Z,16.43
2019-01-31T07:47:42.269Z,16.60
2019-01-31T07:50:13.866Z,15.03
2019-01-31T07:52:42.369Z,16.17
2019-01-31T07:55:11.867Z,15.07
2019-01-31T07:57:40.448Z,14.80
2019-01-31T08:00:20.074Z,15.90
2019-01-31T08:02:48.545Z,15.67
2019-01-31T08:05:18.638Z,15.47
2019-01-31T08:07:47.905Z,16.17
2019-01-31T08:10:25.026Z,15.97
2019-01-31T08:12:53.466Z,16.03
2019-01-31T08:15:21.914Z,16.03
2019-01-31T08:17:50.354Z,14.90
2019-01-31T08:20:20.174Z,15.77
2019-01-31T08:22:48.691Z,16.37
2019-01-31T08:25:22.486Z,14.67
2019-01-31T08:27:51.765Z,14.63
2019-01-31T08:30:25.795Z,15.13
2019-01-31T08:32:54.297Z,15.87
2019-01-31T08:35:22.750Z,15.13
2019-01-31T08:37:51.185Z,15.80
2019-01-31T08:40:19.634Z,15.13
2019-01-31T08:42:48.069Z,14.53
2019-01-31T08:45:16.590Z,15.10
2019-01-31T08:47:45.049Z,15.70
2019-01-31T08:50:27.442Z,14.70
2019-01-31T08:52:54.890Z,15.30
2019-01-31T08:55:23.505Z,15.37
2019-01-31T08:57:51.998Z,15.33
2019-01-31T09:00:28.970Z,14.90
2019-01-31T09:02:57.575Z,15.10
2019-01-31T09:05:26.105Z,15.40
2019-01-31T09:07:54.892Z,15.67
2019-01-31T09:10:25.760Z,15.67
2019-01-31T09:12:54.212Z,16.07
2019-01-31T09:15:24.091Z,15.87
2019-01-31T09:17:52.977Z,15.90
2019-01-31T09:20:24.459Z,15.50
2019-01-31T09:22:55.998Z,15.27
2019-01-31T09:25:54.341Z,15.90
2019-01-31T09:28:34.606Z,14.77
2019-01-31T09:31:11.556Z,15.07
2019-01-31T09:34:06.382Z,14.70
2019-01-31T09:36:46.881Z,15.27
2019-01-31T09:39:34.852Z,15.37
2019-01-31T09:42:12.022Z,15.07
2019-01-31T09:44:49.099Z,14.13
2019-01-31T09:47:42.364Z,15.40
2019-01-31T09:50:13.886Z,15.73
2019-01-31T09:53:10.535Z,14.57
2019-01-31T09:55:58.519Z,14.50
2019-01-31T09:58:36.180Z,14.67
2019-01-31T10:01:30.085Z,14.90
2019-01-31T10:04:19.601Z,14.90
2019-01-31T10:07:10.514Z,14.33
2019-01-31T10:10:09.198Z,14.50
2019-01-31T10:12:52.562Z,14.13
2019-01-31T10:15:32.795Z,15.40
2019-01-31T10:18:28.163Z,15.70
2019-01-31T10:21:08.397Z,14.13
2019-01-31T10:23:39.981Z,14.47
2019-01-31T10:26:33.906Z,15.00
2019-01-31T10:29:08.388Z,14.53
2019-01-31T10:31:51.388Z,15.03
2019-01-31T10:34:40.817Z,13.97
2019-01-31T10:37:31.815Z,14.13
2019-01-31T10:40:12.200Z,14.70
2019-01-31T10:42:50.506Z,14.67
2019-01-31T10:45:42.551Z,14.30
2019-01-31T10:48:25.453Z,14.60
2019-01-31T10:50:58.605Z,16.10
2019-01-31T10:53:35.988Z,14.07
2019-01-31T10:56:27.770Z,12.77
2019-01-31T10:59:01.969Z,12.13
2019-01-31T11:01:39.319Z,12.63
2019-01-31T11:04:26.987Z,13.03
2019-01-31T11:07:18.897Z,12.70
2019-01-31T11:09:56.119Z,13.57
2019-01-31T11:13:00.291Z,13.63
2019-01-31T11:15:28.653Z,13.43
2019-01-31T11:18:09.078Z,12.90
2019-01-31T11:21:01.294Z,12.70
2019-01-31T11:23:50.401Z,14.20
2019-01-31T11:26:30.877Z,13.57
2019-01-31T11:29:20.061Z,14.07
2019-01-31T11:32:03.257Z,13.67
2019-01-31T11:34:43.656Z,12.90
2019-01-31T11:37:31.626Z,12.87
2019-01-31T11:40:17.866Z,12.23
2019-01-31T11:42:58.079Z,12.80
2019-01-31T11:45:44.477Z,12.20
2019-01-31T11:48:27.733Z,11.97
2019-01-31T11:51:21.621Z,13.43
2019-01-31T11:53:53.144Z,12.70
2019-01-31T11:56:36.470Z,12.33
2019-01-31T11:59:06.267Z,12.30
2019-01-31T12:01:34.840Z,12.77
2019-01-31T12:04:05.839Z,12.83
2019-01-31T12:06:34.449Z,11.77
2019-01-31T12:09:03.035Z,11.57
2019-01-31T12:11:31.510Z,12.63
2019-01-31T12:13:59.959Z,11.03
2019-01-31T12:16:28.412Z,11.10
2019-01-31T12:18:56.846Z,11.40
2019-01-31T12:21:25.372Z,10.53
2019-01-31T12:23:53.798Z,12.50
2019-01-31T12:26:22.249Z,12.97
2019-01-31T12:28:51.070Z,12.03
2019-01-31T12:31:19.720Z,11.83
2019-01-31T12:33:48.146Z,10.67
2019-01-31T12:36:16.609Z,11.00
2019-01-31T12:38:45.081Z,10.40
2019-01-31T12:41:13.505Z,12.43
2019-01-31T12:43:41.959Z,12.73
2019-01-31T12:46:10.401Z,11.67
2019-01-31T12:48:38.848Z,10.30
2019-01-31T12:51:07.277Z,10.77
2019-01-31T12:53:35.731Z,9.20
2019-01-31T12:56:04.825Z,8.00
2019-01-31T12:58:33.987Z,8.73
2019-01-31T13:01:02.566Z,8.60
2019-01-31T13:03:31.026Z,8.93
2019-01-31T13:05:59.458Z,7.53
2019-01-31T13:08:27.922Z,7.60
2019-01-31T13:10:56.344Z,8.30
2019-01-31T13:13:24.814Z,7.97
2019-01-31T13:15:53.233Z,8.00
2019-01-31T13:18:21.690Z,8.00
2019-01-31T13:20:50.111Z,6.93
2019-01-31T13:23:18.631Z,7.20
2019-01-31T13:25:47.066Z,7.10
2019-01-31T13:28:15.613Z,6.70
2019-01-31T13:30:44.106Z,7.47
2019-01-31T13:33:12.585Z,6.70
2019-01-31T13:35:41.018Z,7.00
2019-01-31T13:38:09.537Z,6.83
2019-01-31T13:40:37.969Z,6.40
2019-01-31T13:43:06.477Z,7.27
2019-01-31T13:45:35.752Z,7.13
2019-01-31T13:48:06.855Z,7.00
2019-01-31T13:50:35.273Z,7.60
2019-01-31T13:53:06.253Z,8.27
2019-01-31T13:55:34.776Z,8.90
2019-01-31T13:58:03.221Z,8.00
2019-01-31T14:00:31.747Z,9.53
2019-01-31T14:03:00.176Z,8.30
2019-01-31T14:05:29.970Z,9.43
2019-01-31T14:07:58.704Z,9.13
2019-01-31T14:10:27.586Z,9.23
2019-01-31T14:12:56.034Z,9.03
2019-01-31T14:15:33.684Z,9.23
2019-01-31T14:17:58.543Z,8.37
2019-01-31T14:20:28.110Z,9.50
2019-01-31T14:22:56.561Z,9.43
2019-01-31T14:25:25.446Z,8.80
2019-01-31T14:27:53.973Z,9.10
2019-01-31T14:30:25.523Z,8.87
2019-01-31T14:32:54.206Z,10.07
2019-01-31T14:35:22.648Z,10.53
2019-01-31T14:37:51.262Z,10.23
2019-01-31T14:40:19.780Z,11.47
2019-01-31T14:42:48.228Z,10.63
2019-01-31T14:45:17.311Z,10.07
2019-01-31T14:47:45.750Z,10.67
2019-01-31T14:50:17.305Z,9.43
2019-01-31T14:52:45.745Z,8.93
2019-01-31T14:55:14.261Z,8.73
2019-01-31T14:57:42.699Z,10.17
2019-01-31T15:00:17.112Z,9.43
2019-01-31T15:02:45.543Z,8.73
2019-01-31T15:05:15.533Z,8.93
2019-01-31T15:07:44.216Z,8.67
2019-01-31T15:10:18.405Z,8.50
2019-01-31T15:12:46.870Z,8.60
2019-01-31T15:15:16.365Z,9.13
2019-01-31T15:17:44.862Z,8.67
2019-01-31T15:20:38.113Z,8.57
2019-01-31T15:23:03.717Z,8.10
2019-01-31T15:25:32.178Z,8.33
2019-01-31T15:28:00.620Z,9.03
2019-01-31T15:30:31.365Z,8.90
2019-01-31T15:32:59.911Z,9.50
2019-01-31T15:35:28.364Z,9.77
2019-01-31T15:37:56.986Z,10.50
2019-01-31T15:40:34.713Z,10.93
2019-01-31T15:43:03.324Z,13.23
2019-01-31T15:45:31.771Z,11.53
2019-01-31T15:48:00.209Z,15.13
2019-01-31T15:50:29.002Z,14.80
2019-01-31T15:52:57.539Z,16.00
2019-01-31T15:55:27.338Z,15.83
2019-01-31T15:57:55.801Z,15.50
2019-01-31T16:00:37.588Z,15.70
2019-01-31T16:03:07.292Z,14.53
2019-01-31T16:05:35.825Z,13.57
2019-01-31T16:08:05.097Z,14.03
2019-01-31T16:10:33.758Z,13.00
2019-01-31T16:13:02.246Z,14.00
2019-01-31T16:15:30.952Z,13.00
2019-01-31T16:17:59.471Z,13.33
2019-01-31T16:20:27.924Z,14.97
2019-01-31T16:22:56.608Z,13.77
2019-01-31T16:25:25.062Z,13.93
2019-01-31T16:27:53.490Z,14.00
2019-01-31T16:30:22.159Z,13.40
2019-01-31T16:32:50.674Z,13.13
2019-01-31T16:35:20.731Z,13.60
2019-01-31T16:37:50.407Z,13.50
2019-01-31T16:40:19.369Z,13.43
2019-01-31T16:42:47.816Z,14.83
2019-01-31T16:45:17.381Z,14.53
2019-01-31T16:47:46.162Z,14.60
2019-01-31T16:50:20.701Z,14.00
2019-01-31T16:52:49.135Z,14.23
2019-01-31T16:55:23.247Z,14.07
2019-01-31T16:57:51.750Z,14.50
2019-01-31T17:00:22.813Z,14.63
2019-01-31T17:02:51.615Z,14.27
2019-01-31T17:05:22.446Z,15.27
2019-01-31T17:07:50.887Z,14.47
2019-01-31T17:10:19.422Z,15.03
2019-01-31T17:12:47.862Z,15.07
2019-01-31T17:15:18.563Z,16.43
2019-01-31T17:17:47.098Z,15.90
2019-01-31T17:20:20.847Z,17.20
2019-01-31T17:22:49.325Z,17.47
2019-01-31T17:25:17.821Z,17.80
2019-01-31T17:27:46.334Z,17.80
2019-01-31T17:30:20.262Z,18.23
2019-01-31T17:32:48.698Z,17.70
2019-01-31T17:35:17.142Z,18.33
2019-01-31T17:37:45.708Z,19.47
2019-01-31T17:40:20.383Z,18.20
2019-01-31T17:42:48.914Z,18.83
2019-01-31T17:45:30.024Z,18.23
2019-01-31T17:47:49.708Z,19.07
2019-01-31T17:50:18.220Z,20.13
2019-01-31T17:52:46.653Z,19.67
2019-01-31T17:55:17.538Z,20.97
2019-01-31T17:57:45.956Z,19.77
2019-01-31T18:00:24.508Z,20.37
2019-01-31T18:02:53.001Z,20.30
2019-01-31T18:05:21.468Z,20.33
2019-01-31T18:07:49.970Z,21.40
2019-01-31T18:10:22.316Z,20.40
2019-01-31T18:12:50.759Z,21.73
2019-01-31T18:15:19.287Z,21.97
2019-01-31T18:17:47.722Z,22.83
2019-01-31T18:20:18.978Z,21.30
2019-01-31T18:22:47.566Z,22.07
2019-01-31T18:25:16.171Z,20.30
2019-01-31T18:27:44.637Z,21.43
2019-01-31T18:30:16.276Z,22.80
2019-01-31T18:32:44.736Z,20.80
2019-01-31T18:35:13.310Z,22.20
2019-01-31T18:37:41.851Z,22.47
2019-01-31T18:40:18.076Z,22.80
2019-01-31T18:42:46.539Z,22.30
2019-01-31T18:45:20.587Z,23.03
2019-01-31T18:47:49.030Z,23.20
2019-01-31T18:50:20.307Z,22.67
2019-01-31T18:52:48.751Z,21.47
2019-01-31T18:55:17.345Z,23.10
2019-01-31T18:57:45.782Z,22.77
2019-01-31T19:00:29.073Z,22.40
2019-01-31T19:02:57.527Z,22.87
2019-01-31T19:05:26.302Z,22.97
2019-01-31T19:07:55.090Z,22.20
2019-01-31T19:10:23.518Z,22.40
2019-01-31T19:12:52.051Z,23.17
2019-01-31T19:15:24.827Z,22.27
2019-01-31T19:18:04.515Z,21.93
2019-01-31T19:20:28.463Z,22.80
2019-01-31T19:22:58.363Z,23.33
2019-01-31T19:25:26.941Z,22.30
2019-01-31T19:27:55.394Z,21.00
2019-01-31T19:30:26.434Z,22.03
2019-01-31T19:32:54.898Z,22.63
2019-01-31T19:35:23.342Z,22.73
2019-01-31T19:38:01.671Z,20.93
2019-01-31T19:40:27.417Z,21.37
2019-01-31T19:42:55.878Z,19.87
2019-01-31T19:45:27.397Z,21.17
2019-01-31T19:47:55.919Z,20.57
2019-01-31T19:50:24.521Z,20.17
2019-01-31T19:52:53.430Z,20.67
2019-01-31T19:55:21.880Z,20.90
2019-01-31T19:57:50.326Z,20.17
2019-01-31T20:00:23.404Z,20.27
2019-01-31T20:02:51.923Z,21.20
2019-01-31T20:05:20.445Z,21.27
2019-01-31T20:07:49.048Z,20.90
2019-01-31T20:10:20.620Z,20.73
2019-01-31T20:12:49.075Z,21.50
2019-01-31T20:15:17.589Z,22.23
2019-01-31T20:17:47.579Z,21.90
2019-01-31T20:20:19.922Z,21.70
2019-01-31T20:22:49.309Z,21.93
2019-01-31T20:25:17.923Z,22.23
2019-01-31T20:27:46.637Z,23.30
2019-01-31T20:30:20.421Z,23.43
2019-01-31T20:32:48.939Z,22.07
2019-01-31T20:35:19.553Z,21.90
2019-01-31T20:37:48.069Z,28.47
2019-01-31T20:40:28.050Z,23.00
2019-01-31T20:42:56.913Z,23.50
2019-01-31T20:45:25.580Z,22.60
2019-01-31T20:47:54.088Z,22.67
2019-01-31T20:50:30.883Z,24.03
2019-01-31T20:52:59.329Z,24.10
2019-01-31T20:55:27.978Z,24.00
2019-01-31T20:57:56.431Z,24.20
2019-01-31T21:00:36.049Z,23.27
2019-01-31T21:03:06.443Z,25.00
2019-01-31T21:05:35.443Z,25.97
2019-01-31T21:08:04.390Z,24.50
2019-01-31T21:10:32.907Z,26.70
2019-01-31T21:13:01.339Z,26.50
2019-01-31T21:15:29.858Z,26.30
2019-01-31T21:17:58.297Z,25.73
2019-01-31T21:20:27.026Z,27.00
2019-01-31T21:22:55.570Z,26.73
2019-01-31T21:25:24.157Z,25.47
2019-01-31T21:27:52.591Z,27.20
2019-01-31T21:30:27.136Z,27.90
2019-01-31T21:32:55.562Z,27.43
2019-01-31T21:35:24.844Z,27.93
2019-01-31T21:37:53.276Z,27.87
2019-01-31T21:40:23.177Z,27.77
2019-01-31T21:42:51.680Z,28.73
2019-01-31T21:45:21.468Z,28.70
2019-01-31T21:47:49.913Z,29.37
2019-01-31T21:50:23.545Z,28.27
2019-01-31T21:52:51.987Z,28.87
2019-01-31T21:55:20.606Z,29.07
2019-01-31T21:57:49.037Z,28.80
2019-01-31T22:00:20.020Z,28.93
2019-01-31T22:02:48.584Z,28.40
2019-01-31T22:05:17.687Z,30.73
2019-01-31T22:07:46.188Z,29.93
2019-01-31T22:10:18.492Z,28.13
2019-01-31T22:12:47.102Z,29.80
2019-01-31T22:15:33.271Z,28.83
2019-01-31T22:18:01.698Z,29.77
2019-01-31T22:20:30.197Z,30.07
2019-01-31T22:22:58.655Z,30.27
2019-01-31T22:25:27.100Z,30.43
2019-01-31T22:27:55.528Z,30.30
2019-01-31T22:30:34.674Z,28.37
2019-01-31T22:33:03.110Z,28.70
2019-01-31T22:35:31.567Z,30.53
2019-01-31T22:37:59.992Z,29.30
2019-01-31T22:40:28.438Z,29.67
2019-01-31T22:42:56.877Z,30.03
2019-01-31T22:45:25.548Z,29.50
2019-01-31T22:47:54.260Z,30.17
2019-01-31T22:50:26.017Z,29.57
2019-01-31T22:52:54.539Z,28.27
2019-01-31T22:55:24.733Z,29.07
2019-01-31T22:57:53.402Z,30.27
2019-01-31T23:00:32.247Z,29.10
2019-01-31T23:03:00.685Z,29.73
2019-01-31T23:05:29.175Z,30.00
2019-01-31T23:07:57.657Z,30.23
2019-01-31T23:10:26.186Z,30.10
2019-01-31T23:12:54.705Z,30.57
2019-01-31T23:15:23.137Z,29.10
2019-01-31T23:17:51.622Z,28.43
2019-01-31T23:20:20.138Z,30.77
2019-01-31T23:22:48.604Z,28.97
2019-01-31T23:25:17.042Z,30.00
2019-01-31T23:27:45.504Z,29.07
2019-01-31T23:30:15.701Z,28.30
2019-01-31T23:32:44.154Z,28.10
2019-01-31T23:35:12.839Z,29.47
2019-01-31T23:37:41.318Z,29.80
2019-01-31T23:40:11.555Z,30.80
2019-01-31T23:42:40.085Z,30.23
2019-01-31T23:45:11.820Z,30.50
2019-01-31T23:47:48.426Z,28.57
2019-01-31T23:50:12.184Z,29.63
2019-01-31T23:52:40.637Z,30.80
2019-01-31T23:55:16.448Z,30.13
2019-01-31T23:57:44.898Z,30.03
